createdAt,value
2016-05-20T00:00:43.535Z,10.38
2016-05-20T00:01:52.257Z,10.26
2016-05-20T00:02:44.009Z,10.21
2016-05-20T00:03:44.153Z,10.14
2016-05-20T00:04:44.030Z,10.02
2016-05-20T00:05:44.158Z,9.99
2016-05-20T00:06:43.520Z,10.03
2016-05-20T00:07:43.195Z,10.02
2016-05-20T00:08:44.306Z,9.96
2016-05-20T00:09:44.856Z,9.82
2016-05-20T00:10:44.218Z,9.88
2016-05-20T00:11:43.642Z,9.81
2016-05-20T00:12:43.348Z,9.67
2016-05-20T00:13:44.069Z,9.71
2016-05-20T00:14:43.995Z,9.62
2016-05-20T00:15:44.216Z,9.64
2016-05-20T00:16:43.141Z,9.56
2016-05-20T00:17:43.378Z,9.52
2016-05-20T00:18:44.005Z,9.44
2016-05-20T00:19:44.024Z,9.45
2016-05-20T00:20:44.277Z,9.45
2016-05-20T00:21:44.138Z,9.37
2016-05-20T00:22:44.125Z,9.26
2016-05-20T00:23:44.113Z,9.3
2016-05-20T00:25:44.071Z,9.2
2016-05-20T00:26:43.995Z,9.21
2016-05-20T00:27:43.560Z,9.08
2016-05-20T00:28:56.454Z,9.08
2016-05-20T00:29:43.660Z,9
2016-05-20T00:30:44.210Z,9.12
2016-05-20T00:31:44.040Z,8.97
2016-05-20T00:32:43.027Z,8.92
2016-05-20T00:33:44.030Z,8.97
2016-05-20T00:34:42.893Z,8.83
2016-05-20T00:35:42.910Z,8.77
2016-05-20T00:37:43.931Z,8.85
2016-05-20T00:38:42.950Z,8.72
2016-05-20T00:39:42.359Z,8.69
2016-05-20T00:40:42.845Z,8.76
2016-05-20T00:41:44.083Z,8.72
2016-05-20T00:42:42.819Z,8.65
2016-05-20T00:43:42.760Z,8.64
2016-05-20T00:44:42.935Z,8.61
2016-05-20T00:45:42.844Z,8.64
2016-05-20T00:46:44.643Z,8.47
2016-05-20T00:48:42.977Z,8.52
2016-05-20T00:49:43.808Z,8.47
2016-05-20T00:50:42.747Z,8.43
2016-05-20T00:51:42.953Z,8.32
2016-05-20T00:52:42.800Z,8.29
2016-05-20T00:53:43.771Z,8.34
2016-05-20T00:54:44.102Z,8.29
2016-05-20T00:55:43.589Z,8.22
2016-05-20T00:56:42.888Z,8.17
2016-05-20T00:57:43.610Z,8.19
2016-05-20T00:58:43.644Z,8.24
2016-05-20T00:59:43.835Z,8.21
2016-05-20T01:00:43.306Z,8.11
2016-05-20T01:01:43.355Z,8.17
2016-05-20T01:02:51.233Z,8.19
2016-05-20T01:04:43.457Z,8.09
2016-05-20T01:05:42.804Z,8.13
2016-05-20T01:06:43.056Z,8.07
2016-05-20T01:07:45.106Z,8.03
2016-05-20T01:09:42.658Z,7.99
2016-05-20T01:10:43.129Z,8.01
2016-05-20T01:11:43.225Z,7.99
2016-05-20T01:12:42.619Z,8.04
2016-05-20T01:14:43.202Z,8.13
2016-05-20T01:15:42.549Z,8.11
2016-05-20T01:17:58.773Z,8.14
2016-05-20T01:19:19.560Z,8.13
2016-05-20T01:20:40.860Z,8.13
2016-05-20T01:22:00.487Z,8.06
2016-05-20T01:23:11.396Z,8.13
2016-05-20T01:24:10.321Z,8.04
2016-05-20T01:25:26.763Z,8.04
2016-05-20T01:25:59.576Z,8.14
2016-05-20T01:26:59.610Z,8.16
2016-05-20T01:27:59.738Z,8.28
2016-05-20T01:29:00.632Z,8.29
2016-05-20T01:30:00.399Z,8.26
2016-05-20T01:32:00.077Z,8.4
2016-05-20T01:33:01.720Z,8.46
2016-05-20T01:34:00.785Z,8.5
2016-05-20T01:35:00.398Z,8.57
2016-05-20T01:36:00.618Z,8.61
2016-05-20T01:37:00.371Z,8.62
2016-05-20T01:37:59.734Z,8.6
2016-05-20T01:39:08.001Z,8.53
2016-05-20T01:40:00.879Z,8.6
2016-05-20T01:41:08.241Z,8.58
2016-05-20T01:42:00.901Z,8.57
2016-05-20T01:43:00.435Z,8.53
2016-05-20T01:45:00.550Z,8.36
2016-05-20T01:46:09.505Z,8.47
2016-05-20T01:47:00.758Z,8.52
2016-05-20T01:48:00.089Z,8.54
2016-05-20T01:49:00.231Z,8.57
2016-05-20T01:51:00.299Z,8.69
2016-05-20T01:52:00.255Z,8.76
2016-05-20T01:53:05.414Z,8.87
2016-05-20T01:53:59.932Z,8.9
2016-05-20T01:55:00.919Z,9.01
2016-05-20T01:56:08.266Z,9.03
2016-05-20T01:57:00.316Z,9.05
2016-05-20T01:58:00.021Z,9
2016-05-20T02:00:05.511Z,9.27
2016-05-20T02:00:59.124Z,9.32
2016-05-20T02:01:59.657Z,9.3
2016-05-20T02:04:00.100Z,9.47
2016-05-20T02:04:59.978Z,9.5
2016-05-20T02:05:59.262Z,9.52
2016-05-20T02:06:59.014Z,9.53
2016-05-20T02:08:00.923Z,9.53
2016-05-20T02:08:59.598Z,9.56
2016-05-20T02:09:59.913Z,9.57
2016-05-20T02:11:00.010Z,9.57
2016-05-20T02:11:59.669Z,9.66
2016-05-20T02:12:59.765Z,9.7
2016-05-20T02:13:59.253Z,9.64
2016-05-20T02:15:09.583Z,9.67
2016-05-20T02:16:00.460Z,9.7
2016-05-20T02:17:00.526Z,9.6
2016-05-20T02:17:59.684Z,9.62
2016-05-20T02:19:00.187Z,9.55
2016-05-20T02:20:00.175Z,9.52
2016-05-20T02:20:59.724Z,9.55
2016-05-20T02:22:04.492Z,9.52
2016-05-20T02:22:59.838Z,9.48
2016-05-20T02:23:59.561Z,9.56
2016-05-20T02:24:59.563Z,9.48
2016-05-20T02:26:00.769Z,9.5
2016-05-20T02:27:00.147Z,9.42
2016-05-20T02:28:00.915Z,9.45
2016-05-20T02:29:26.685Z,9.35
2016-05-20T02:30:38.719Z,9.3
2016-05-20T02:32:03.082Z,9.16
2016-05-20T02:33:24.384Z,9.2
2016-05-20T02:34:45.620Z,9.12
2016-05-20T02:36:06.936Z,9.14
2016-05-20T02:37:06.735Z,9.17
2016-05-20T02:38:08.301Z,9.21
2016-05-20T02:39:11.148Z,9.2
2016-05-20T02:40:21.856Z,9.2
2016-05-20T02:41:44.921Z,9.34
2016-05-20T02:42:52.534Z,9.34
2016-05-20T02:44:16.051Z,9.3
2016-05-20T02:45:00.961Z,9.45
2016-05-20T02:47:08.841Z,9.34
2016-05-20T02:48:18.190Z,9.39
2016-05-20T02:49:27.145Z,9.48
2016-05-20T02:51:09.055Z,9.45
2016-05-20T02:52:27.951Z,9.47
2016-05-20T02:54:01.578Z,9.53
2016-05-20T02:55:15.847Z,9.48
2016-05-20T02:56:37.039Z,9.53
2016-05-20T02:58:00.714Z,9.57
2016-05-20T02:58:47.841Z,9.67
2016-05-20T03:00:47.847Z,9.78
2016-05-20T03:01:47.944Z,9.75
2016-05-20T03:02:48.931Z,9.8
2016-05-20T03:03:48.089Z,9.88
2016-05-20T03:04:47.796Z,9.82
2016-05-20T03:05:47.798Z,9.89
2016-05-20T03:06:48.863Z,9.85
2016-05-20T03:07:48.851Z,9.95
2016-05-20T03:08:56.212Z,10
2016-05-20T03:09:48.168Z,9.9
2016-05-20T03:10:48.062Z,9.93
2016-05-20T03:12:48.536Z,9.9
2016-05-20T03:13:48.819Z,10.03
2016-05-20T03:14:47.587Z,10.02
2016-05-20T03:15:48.763Z,10.03
2016-05-20T03:17:47.502Z,10.14
2016-05-20T03:19:47.508Z,10.11
2016-05-20T03:20:47.463Z,10.21
2016-05-20T03:21:48.591Z,10.29
2016-05-20T03:22:51.188Z,10.29
2016-05-20T03:23:48.955Z,10.29
2016-05-20T03:24:57.255Z,10.29
2016-05-20T03:25:48.868Z,10.17
2016-05-20T03:26:47.760Z,10.29
2016-05-20T03:27:47.966Z,10.26
2016-05-20T03:28:50.344Z,10.15
2016-05-20T03:30:50.428Z,10.25
2016-05-20T03:31:50.477Z,10.29
2016-05-20T03:32:50.777Z,10.18
2016-05-20T03:33:50.513Z,10.13
2016-05-20T03:34:50.595Z,10.13
2016-05-20T03:35:50.519Z,10.14
2016-05-20T03:37:50.587Z,10.13
2016-05-20T03:38:50.777Z,10.11
2016-05-20T03:39:51.202Z,10
2016-05-20T03:40:50.595Z,10.05
2016-05-20T03:41:50.489Z,9.93
2016-05-20T03:42:50.242Z,9.96
2016-05-20T03:43:50.620Z,9.92
2016-05-20T03:44:50.137Z,9.81
2016-05-20T03:45:50.250Z,9.84
2016-05-20T03:46:50.236Z,9.74
2016-05-20T03:47:50.301Z,9.71
2016-05-20T03:48:48.772Z,9.71
2016-05-20T03:49:48.353Z,9.64
2016-05-20T03:50:47.622Z,9.6
2016-05-20T03:51:49.359Z,9.57
2016-05-20T03:52:48.503Z,9.53
2016-05-20T03:53:48.506Z,9.52
2016-05-20T03:54:48.274Z,9.53
2016-05-20T03:55:48.402Z,9.5
2016-05-20T03:56:47.514Z,9.48
2016-05-20T03:57:47.500Z,9.38
2016-05-20T03:58:48.535Z,9.42
2016-05-20T03:59:48.833Z,9.39
2016-05-20T04:00:48.305Z,9.39
2016-05-20T04:01:47.402Z,9.37
2016-05-20T04:02:47.374Z,9.45
2016-05-20T04:03:47.610Z,9.41
2016-05-20T04:04:56.832Z,9.42
2016-05-20T04:06:01.679Z,9.47
2016-05-20T04:06:48.463Z,9.59
2016-05-20T04:07:48.527Z,9.56
2016-05-20T04:08:47.029Z,9.57
2016-05-20T04:09:47.799Z,9.6
2016-05-20T04:10:48.676Z,9.71
2016-05-20T04:11:48.491Z,9.77
2016-05-20T04:12:51.806Z,9.93
2016-05-20T04:13:48.543Z,9.93
2016-05-20T04:14:48.687Z,10.03
2016-05-20T04:15:48.487Z,10.07
2016-05-20T04:16:48.474Z,10.07
2016-05-20T04:17:47.461Z,10.14
2016-05-20T04:18:56.682Z,10.26
2016-05-20T04:19:48.326Z,10.2
2016-05-20T04:20:49.719Z,10.29
2016-05-20T04:21:48.706Z,10.29
2016-05-20T04:22:48.677Z,10.23
2016-05-20T04:23:47.680Z,10.31
2016-05-20T04:24:48.323Z,10.26
2016-05-20T04:25:47.950Z,10.2
2016-05-20T04:26:48.141Z,10.29
2016-05-20T04:27:48.002Z,10.15
2016-05-20T04:28:48.302Z,10.14
2016-05-20T04:29:47.931Z,10.13
2016-05-20T04:30:48.183Z,10.13
2016-05-20T04:31:48.264Z,10.18
2016-05-20T04:32:48.610Z,10.03
2016-05-20T04:33:48.269Z,10.07
2016-05-20T04:34:48.382Z,10.14
2016-05-20T04:35:48.399Z,10.2
2016-05-20T04:36:47.512Z,10.21
2016-05-20T04:37:47.154Z,10.32
2016-05-20T04:38:49.096Z,10.35
2016-05-20T04:39:48.099Z,10.55
2016-05-20T04:40:48.507Z,10.57
2016-05-20T04:41:48.447Z,10.66
2016-05-20T04:42:48.387Z,10.69
2016-05-20T04:43:52.577Z,10.69
2016-05-20T04:44:48.065Z,10.66
2016-05-20T04:45:51.098Z,10.65
2016-05-20T04:46:48.195Z,10.66
2016-05-20T04:47:53.306Z,10.69
2016-05-20T04:48:48.215Z,10.69
2016-05-20T04:49:48.203Z,10.7
2016-05-20T04:50:48.189Z,10.72
2016-05-20T04:51:51.349Z,10.65
2016-05-20T04:52:48.273Z,10.59
2016-05-20T04:53:48.058Z,10.67
2016-05-20T04:54:46.779Z,10.69
2016-05-20T04:55:47.734Z,10.65
2016-05-20T04:56:56.346Z,10.77
2016-05-20T04:57:49.193Z,10.9
2016-05-20T04:58:47.867Z,10.98
2016-05-20T05:00:06.995Z,11.08
2016-05-20T05:01:12.763Z,11.03
2016-05-20T05:01:48.064Z,11.13
2016-05-20T05:02:48.721Z,11.05
2016-05-20T05:03:48.474Z,11.08
2016-05-20T05:04:47.119Z,11.09
2016-05-20T05:05:47.105Z,11.23
2016-05-20T05:06:46.968Z,11.24
2016-05-20T05:07:47.970Z,11.34
2016-05-20T05:08:47.551Z,11.41
2016-05-20T05:09:48.601Z,11.41
2016-05-20T05:10:47.228Z,11.39
2016-05-20T05:11:46.965Z,11.41
2016-05-20T05:12:49.483Z,11.38
2016-05-20T05:13:47.564Z,11.45
2016-05-20T05:14:46.442Z,11.48
2016-05-20T05:15:46.804Z,11.51
2016-05-20T05:16:47.041Z,11.59
2016-05-20T05:17:47.059Z,11.56
2016-05-20T05:19:47.659Z,11.57
2016-05-20T05:20:46.865Z,11.67
2016-05-20T05:21:46.929Z,11.63
2016-05-20T05:22:47.697Z,11.78
2016-05-20T05:23:47.654Z,11.91
2016-05-20T05:24:47.109Z,11.91
2016-05-20T05:25:58.596Z,12.01
2016-05-20T05:26:47.067Z,12.03
2016-05-20T05:28:10.836Z,12.08
2016-05-20T05:28:47.558Z,12.28
2016-05-20T05:29:46.592Z,12.4
2016-05-20T05:30:48.360Z,12.59
2016-05-20T05:31:47.269Z,12.71
2016-05-20T05:32:47.834Z,12.8
2016-05-20T05:33:47.072Z,12.96
